createdAt,value
2018-01-27T00:00:44.672Z,21.53
2018-01-27T00:03:13.555Z,19.73
2018-01-27T00:05:42.223Z,21.10
2018-01-27T00:08:09.932Z,21.03
2018-01-27T00:10:38.281Z,21.10
2018-01-27T00:13:06.788Z,20.90
2018-01-27T00:15:35.537Z,20.30
2018-01-27T00:18:03.571Z,19.57
2018-01-27T00:20:32.701Z,19.37
2018-01-27T00:23:01.087Z,20.67
2018-01-27T00:25:29.440Z,21.27
2018-01-27T00:27:57.870Z,21.60
2018-01-27T00:30:26.352Z,21.80
2018-01-27T00:32:55.571Z,20.50
2018-01-27T00:35:24.862Z,22.30
2018-01-27T00:37:53.235Z,22.87
2018-01-27T00:40:21.610Z,21.63
2018-01-27T00:42:50.201Z,22.00
2018-01-27T00:45:19.357Z,20.77
2018-01-27T00:47:47.862Z,21.20
2018-01-27T00:50:16.226Z,21.67
2018-01-27T00:52:44.600Z,21.00
2018-01-27T00:55:13.127Z,21.60
2018-01-27T00:57:42.310Z,22.57
2018-01-27T01:00:10.731Z,21.63
2018-01-27T01:02:39.148Z,22.20
2018-01-27T01:05:07.686Z,22.17
2018-01-27T01:07:36.162Z,20.53
2018-01-27T01:10:04.720Z,22.17
2018-01-27T01:12:33.939Z,21.27
2018-01-27T01:15:03.073Z,22.70
2018-01-27T01:17:31.462Z,22.90
2018-01-27T01:19:59.836Z,21.27
2018-01-27T01:22:28.290Z,21.57
2018-01-27T01:24:56.881Z,21.47
2018-01-27T01:27:25.366Z,21.93
2018-01-27T01:29:53.968Z,23.90
2018-01-27T01:32:22.504Z,25.00
2018-01-27T01:34:50.883Z,21.90
2018-01-27T01:37:19.260Z,22.60
2018-01-27T01:39:47.635Z,22.60
2018-01-27T01:42:21.619Z,21.30
2018-01-27T01:44:50.860Z,21.20
2018-01-27T01:47:19.229Z,22.60
2018-01-27T01:49:47.588Z,22.27
2018-01-27T01:52:16.738Z,21.80
2018-01-27T01:54:45.265Z,21.97
2018-01-27T01:57:14.412Z,22.10
2018-01-27T01:59:42.778Z,20.67
2018-01-27T02:02:11.407Z,20.90
2018-01-27T02:04:40.953Z,21.83
2018-01-27T02:07:09.532Z,21.53
2018-01-27T02:09:37.895Z,24.03
2018-01-27T02:12:06.254Z,22.87
2018-01-27T02:14:35.391Z,21.27
2018-01-27T02:17:03.980Z,22.20
2018-01-27T02:19:31.999Z,21.17
2018-01-27T02:22:01.186Z,21.60
2018-01-27T02:24:28.931Z,21.93
2018-01-27T02:26:57.501Z,21.20
2018-01-27T02:29:25.990Z,19.33
2018-01-27T02:31:54.352Z,20.40
2018-01-27T02:34:22.399Z,23.00
2018-01-27T02:36:50.917Z,23.03
2018-01-27T02:39:19.063Z,22.57
2018-01-27T02:41:47.454Z,22.50
2018-01-27T02:44:15.834Z,23.30
2018-01-27T02:46:44.171Z,22.10
2018-01-27T02:49:13.320Z,23.30
2018-01-27T02:51:41.821Z,23.63
2018-01-27T02:54:10.286Z,25.33
2018-01-27T02:56:38.012Z,25.07
2018-01-27T02:59:06.295Z,24.50
2018-01-27T03:01:34.730Z,24.50
2018-01-27T03:04:03.912Z,25.83
2018-01-27T03:06:32.270Z,24.20
2018-01-27T03:09:00.674Z,23.63
2018-01-27T03:11:29.051Z,26.27
2018-01-27T03:13:57.404Z,25.30
2018-01-27T03:16:25.777Z,25.43
2018-01-27T03:18:54.228Z,25.20
2018-01-27T03:21:22.635Z,23.20
2018-01-27T03:23:51.182Z,25.67
2018-01-27T03:26:19.541Z,26.97
2018-01-27T03:28:48.694Z,25.30
2018-01-27T03:31:17.234Z,27.97
2018-01-27T03:33:45.698Z,30.37
2018-01-27T03:36:14.837Z,27.50
2018-01-27T03:38:43.960Z,30.70
2018-01-27T03:41:12.335Z,31.83
2018-01-27T03:43:40.742Z,30.57
2018-01-27T03:46:09.902Z,33.20
2018-01-27T03:48:38.314Z,31.30
2018-01-27T03:51:07.618Z,32.10
2018-01-27T03:53:36.765Z,32.20
2018-01-27T03:56:05.273Z,32.17
2018-01-27T03:58:33.654Z,33.93
2018-01-27T04:01:02.151Z,32.50
2018-01-27T04:03:31.765Z,32.73
2018-01-27T04:06:00.280Z,34.37
2018-01-27T04:08:28.634Z,31.33
2018-01-27T04:10:57.467Z,35.80
2018-01-27T04:13:26.045Z,34.30
2018-01-27T04:15:54.447Z,34.80
2018-01-27T04:18:22.964Z,31.00
2018-01-27T04:20:51.757Z,35.90
2018-01-27T04:23:20.103Z,34.23
2018-01-27T04:25:48.475Z,32.27
2018-01-27T04:28:17.040Z,33.63
2018-01-27T04:30:45.806Z,34.37
2018-01-27T04:33:14.318Z,33.60
2018-01-27T04:35:42.687Z,32.57
2018-01-27T04:38:11.239Z,32.90
2018-01-27T04:40:39.290Z,34.00
2018-01-27T04:43:08.574Z,29.43
2018-01-27T04:45:37.855Z,32.70
2018-01-27T04:48:06.216Z,31.70
2018-01-27T04:50:36.464Z,33.17
2018-01-27T04:53:04.818Z,31.87
2018-01-27T04:55:33.179Z,33.10
2018-01-27T04:58:01.555Z,32.33
2018-01-27T05:00:29.942Z,31.60
2018-01-27T05:02:58.284Z,30.60
2018-01-27T05:05:26.839Z,30.73
2018-01-27T05:07:55.187Z,33.10
2018-01-27T05:10:23.575Z,32.37
2018-01-27T05:12:52.024Z,33.67
2018-01-27T05:15:20.408Z,31.60
2018-01-27T05:17:49.031Z,33.07
2018-01-27T05:20:17.454Z,32.93
2018-01-27T05:22:45.829Z,32.83
2018-01-27T05:25:14.418Z,33.17
2018-01-27T05:27:42.814Z,32.80
2018-01-27T05:30:11.180Z,37.40
2018-01-27T05:32:39.583Z,37.20
2018-01-27T05:35:07.957Z,39.20
2018-01-27T05:37:36.333Z,36.90
2018-01-27T05:40:04.480Z,36.50
2018-01-27T05:42:32.890Z,36.93
2018-01-27T05:45:01.475Z,37.77
2018-01-27T05:47:31.311Z,37.30
2018-01-27T05:49:59.757Z,40.40
2018-01-27T05:52:28.148Z,38.50
2018-01-27T05:54:56.749Z,38.60
2018-01-27T05:57:25.866Z,38.83
2018-01-27T05:59:55.060Z,39.13
2018-01-27T06:02:24.458Z,38.60
2018-01-27T06:04:53.613Z,36.40
2018-01-27T06:07:22.126Z,41.00
2018-01-27T06:09:51.735Z,36.07
2018-01-27T06:12:20.748Z,39.80
2018-01-27T06:14:49.206Z,40.47
2018-01-27T06:17:18.375Z,38.60
2018-01-27T06:19:47.027Z,37.20
2018-01-27T06:22:15.366Z,38.90
2018-01-27T06:24:44.563Z,39.90
2018-01-27T06:27:13.660Z,38.30
2018-01-27T06:29:42.930Z,38.27
2018-01-27T06:32:11.526Z,36.00
2018-01-27T06:34:40.066Z,39.57
2018-01-27T06:37:08.206Z,40.40
2018-01-27T06:39:36.567Z,38.90
2018-01-27T06:42:06.560Z,41.63
2018-01-27T06:44:34.933Z,39.27
2018-01-27T06:47:03.323Z,41.60
2018-01-27T06:49:31.708Z,41.80
2018-01-27T06:51:59.756Z,42.63
2018-01-27T06:54:28.202Z,43.43
2018-01-27T06:56:56.655Z,41.03
2018-01-27T06:59:25.953Z,41.10
2018-01-27T07:01:55.084Z,39.37
2018-01-27T07:04:23.573Z,43.17
2018-01-27T07:06:51.952Z,40.17
2018-01-27T07:09:20.321Z,38.20
2018-01-27T07:11:49.208Z,38.13
2018-01-27T07:14:17.555Z,40.87
2018-01-27T07:16:46.739Z,39.77
2018-01-27T07:19:15.889Z,39.90
2018-01-27T07:21:44.410Z,38.63
2018-01-27T07:24:12.091Z,36.20
2018-01-27T07:26:41.221Z,33.80
2018-01-27T07:29:09.748Z,34.17
2018-01-27T07:31:38.523Z,36.10
2018-01-27T07:34:06.872Z,37.10
2018-01-27T07:36:35.672Z,36.10
2018-01-27T07:39:03.826Z,34.87
2018-01-27T07:41:32.547Z,33.03
2018-01-27T07:44:01.245Z,33.47
2018-01-27T07:46:29.624Z,33.63
2018-01-27T07:48:57.663Z,32.27
2018-01-27T07:51:26.125Z,32.63
2018-01-27T07:53:54.541Z,35.40
2018-01-27T07:56:22.922Z,35.10
2018-01-27T07:58:51.345Z,36.23
2018-01-27T08:01:19.962Z,34.70
2018-01-27T08:03:48.532Z,36.57
2018-01-27T08:06:16.886Z,37.43
2018-01-27T08:08:45.592Z,35.10
2018-01-27T08:11:14.083Z,37.23
2018-01-27T08:13:43.549Z,34.83
2018-01-27T08:16:12.704Z,34.00
2018-01-27T08:18:41.070Z,34.97
2018-01-27T08:21:09.437Z,34.77
2018-01-27T08:23:37.820Z,38.60
2018-01-27T08:26:06.165Z,39.00
2018-01-27T08:28:34.738Z,37.73
2018-01-27T08:31:03.864Z,37.43
2018-01-27T08:33:32.276Z,37.90
2018-01-27T08:36:00.644Z,38.30
2018-01-27T08:38:29.079Z,40.50
2018-01-27T08:40:57.539Z,38.30
2018-01-27T08:43:26.672Z,40.40
2018-01-27T08:45:55.194Z,39.60
2018-01-27T08:48:24.175Z,41.10
2018-01-27T08:50:52.544Z,40.90
2018-01-27T08:53:20.893Z,41.67
2018-01-27T08:55:48.907Z,42.07
2018-01-27T08:58:17.270Z,40.97
2018-01-27T09:00:45.642Z,39.70
2018-01-27T09:03:14.060Z,40.07
2018-01-27T09:05:42.581Z,38.03
2018-01-27T09:08:10.934Z,39.73
2018-01-27T09:10:40.058Z,40.90
2018-01-27T09:13:08.457Z,40.03
2018-01-27T09:15:36.822Z,42.20
2018-01-27T09:18:05.222Z,40.27
2018-01-27T09:20:34.067Z,39.70
2018-01-27T09:23:02.432Z,40.10
2018-01-27T09:25:30.849Z,40.80
2018-01-27T09:27:59.402Z,42.40
2018-01-27T09:30:27.944Z,41.90
2018-01-27T09:32:56.307Z,41.63
2018-01-27T09:35:24.650Z,40.40
2018-01-27T09:37:53.030Z,42.90
2018-01-27T09:40:22.022Z,40.83
2018-01-27T09:42:50.542Z,42.50
2018-01-27T09:45:19.602Z,42.43
2018-01-27T09:47:48.004Z,44.87
2018-01-27T09:50:16.704Z,41.77
2018-01-27T09:52:45.068Z,43.67
2018-01-27T09:55:13.459Z,43.23
2018-01-27T09:57:41.830Z,42.80
2018-01-27T10:00:10.253Z,42.70
2018-01-27T10:02:39.381Z,41.03
2018-01-27T10:05:08.039Z,41.17
2018-01-27T10:07:36.390Z,39.40
2018-01-27T10:10:04.760Z,41.40
2018-01-27T10:12:33.189Z,36.67
2018-01-27T10:15:01.561Z,39.90
2018-01-27T10:17:29.928Z,38.43
2018-01-27T10:19:57.973Z,39.90
2018-01-27T10:22:26.517Z,37.10
2018-01-27T10:24:54.895Z,37.10
2018-01-27T10:27:23.276Z,35.00
2018-01-27T10:29:51.694Z,35.07
2018-01-27T10:32:20.940Z,36.00
2018-01-27T10:34:49.507Z,34.20
2018-01-27T10:37:17.892Z,34.43
2018-01-27T10:39:46.146Z,32.40
2018-01-27T10:42:15.171Z,32.60
2018-01-27T10:44:43.378Z,33.03
2018-01-27T10:47:11.745Z,33.83
2018-01-27T10:49:40.201Z,31.87
2018-01-27T10:52:08.654Z,32.70
2018-01-27T10:54:37.936Z,31.93
2018-01-27T10:57:07.269Z,33.23
2018-01-27T10:59:35.799Z,32.57
2018-01-27T11:02:04.345Z,31.60
2018-01-27T11:04:32.740Z,28.87
2018-01-27T11:07:01.432Z,29.07
2018-01-27T11:09:29.955Z,27.97
2018-01-27T11:11:59.766Z,28.13
2018-01-27T11:14:28.353Z,28.50
2018-01-27T11:16:56.549Z,28.57
2018-01-27T11:19:25.238Z,26.80
2018-01-27T11:21:53.717Z,27.00
2018-01-27T11:24:22.228Z,25.90
2018-01-27T11:26:50.599Z,25.80
2018-01-27T11:29:18.992Z,27.20
2018-01-27T11:31:47.356Z,26.77
2018-01-27T11:34:15.850Z,26.83
2018-01-27T11:36:44.670Z,26.30
2018-01-27T11:39:13.092Z,24.27
2018-01-27T11:41:41.642Z,24.17
2018-01-27T11:44:10.045Z,25.00
2018-01-27T11:46:38.432Z,24.80
2018-01-27T11:49:06.981Z,24.80
2018-01-27T11:51:35.652Z,22.03
2018-01-27T11:54:04.806Z,21.93
2018-01-27T11:56:32.984Z,22.23
2018-01-27T11:59:01.365Z,22.03
2018-01-27T12:01:30.313Z,22.43
2018-01-27T12:03:58.721Z,20.63
2018-01-27T12:06:27.226Z,21.13
2018-01-27T12:08:56.403Z,20.50
2018-01-27T12:11:24.812Z,20.37
2018-01-27T12:13:53.375Z,20.63
2018-01-27T12:16:21.622Z,21.27
2018-01-27T12:18:50.297Z,20.63
2018-01-27T12:21:18.684Z,22.07
2018-01-27T12:23:47.072Z,22.07
2018-01-27T12:26:15.433Z,22.10
2018-01-27T12:28:43.863Z,21.97
2018-01-27T12:31:12.296Z,19.93
2018-01-27T12:33:40.874Z,19.77
2018-01-27T12:36:09.259Z,20.60
2018-01-27T12:38:37.785Z,20.03
2018-01-27T12:41:06.951Z,20.70
2018-01-27T12:43:35.357Z,20.73
2018-01-27T12:46:03.820Z,20.40
2018-01-27T12:48:32.275Z,20.53
2018-01-27T12:51:00.924Z,20.30
2018-01-27T12:53:30.086Z,21.00
2018-01-27T12:55:58.569Z,20.27
2018-01-27T12:58:26.949Z,20.60
2018-01-27T13:00:55.618Z,19.50
2018-01-27T13:03:23.990Z,17.40
2018-01-27T13:05:52.431Z,19.20
2018-01-27T13:08:21.003Z,18.17
2018-01-27T13:10:49.567Z,18.17
2018-01-27T13:13:18.733Z,16.63
2018-01-27T13:15:47.084Z,17.63
2018-01-27T13:18:15.460Z,17.80
2018-01-27T13:20:43.815Z,18.20
2018-01-27T13:23:13.499Z,18.07
2018-01-27T13:25:41.944Z,16.53
2018-01-27T13:28:10.360Z,16.70
2018-01-27T13:30:38.856Z,17.13
2018-01-27T13:33:07.988Z,16.97
2018-01-27T13:35:36.342Z,18.30
2018-01-27T13:38:04.811Z,18.43
2018-01-27T13:40:34.002Z,16.83
2018-01-27T13:43:04.770Z,16.67
2018-01-27T13:45:34.077Z,16.97
2018-01-27T13:48:02.520Z,16.30
2018-01-27T13:50:31.954Z,14.20
2018-01-27T13:53:00.341Z,13.00
2018-01-27T13:55:28.734Z,13.80
2018-01-27T13:57:57.164Z,13.27
2018-01-27T14:00:26.328Z,13.20
2018-01-27T14:02:54.768Z,13.97
2018-01-27T14:05:23.130Z,13.00
2018-01-27T14:07:50.836Z,13.37
2018-01-27T14:10:19.286Z,13.50
2018-01-27T14:12:47.646Z,14.00
2018-01-27T14:15:16.301Z,13.83
2018-01-27T14:17:44.109Z,13.77
2018-01-27T14:20:12.655Z,13.70
2018-01-27T14:22:40.746Z,11.80
2018-01-27T14:25:09.163Z,12.27
2018-01-27T14:27:37.692Z,12.63
2018-01-27T14:30:06.940Z,11.70
2018-01-27T14:32:35.367Z,13.67
2018-01-27T14:35:04.158Z,13.20
2018-01-27T14:37:33.365Z,13.60
2018-01-27T14:40:02.487Z,13.07
2018-01-27T14:42:30.844Z,12.30
2018-01-27T14:44:59.253Z,13.13
2018-01-27T14:47:27.891Z,12.10
2018-01-27T14:49:57.262Z,12.30
2018-01-27T14:52:25.802Z,12.70
2018-01-27T14:54:54.350Z,11.97
2018-01-27T14:57:23.471Z,11.97
2018-01-27T14:59:51.818Z,12.70
2018-01-27T15:02:20.957Z,11.23
2018-01-27T15:04:49.399Z,11.97
2018-01-27T15:07:18.588Z,11.33
2018-01-27T15:09:47.984Z,12.70
2018-01-27T15:12:16.343Z,11.60
2018-01-27T15:14:44.697Z,12.00
2018-01-27T15:17:13.761Z,11.80
2018-01-27T15:19:42.910Z,11.27
2018-01-27T15:22:11.535Z,12.37
2018-01-27T15:24:40.652Z,12.27
2018-01-27T15:27:09.261Z,12.07
2018-01-27T15:29:37.625Z,11.73
2018-01-27T15:32:05.996Z,12.97
2018-01-27T15:34:34.025Z,12.27
2018-01-27T15:37:03.925Z,12.47
2018-01-27T15:39:32.460Z,11.37
2018-01-27T15:42:01.086Z,11.90
2018-01-27T15:44:29.455Z,12.70
2018-01-27T15:46:58.826Z,13.33
2018-01-27T15:49:27.389Z,11.20
2018-01-27T15:51:56.030Z,11.90
2018-01-27T15:54:24.395Z,12.90
2018-01-27T15:56:52.757Z,11.23
2018-01-27T15:59:21.176Z,11.50
2018-01-27T16:01:49.584Z,12.60
2018-01-27T16:04:18.858Z,11.10
2018-01-27T16:06:47.235Z,10.97
2018-01-27T16:09:15.600Z,11.70
2018-01-27T16:11:44.345Z,11.50
2018-01-27T16:14:12.939Z,11.87
2018-01-27T16:16:41.926Z,13.20
2018-01-27T16:19:10.290Z,12.07
2018-01-27T16:21:38.326Z,10.90
2018-01-27T16:24:07.542Z,11.00
2018-01-27T16:26:36.911Z,10.83
2018-01-27T16:29:05.380Z,11.90
2018-01-27T16:31:33.552Z,11.60
2018-01-27T16:34:02.390Z,11.27
2018-01-27T16:36:30.885Z,11.10
2018-01-27T16:38:58.579Z,12.03
2018-01-27T16:41:26.987Z,11.90
2018-01-27T16:43:55.928Z,11.60
2018-01-27T16:46:24.298Z,11.37
2018-01-27T16:48:52.480Z,11.70
2018-01-27T16:51:20.884Z,11.80
2018-01-27T16:53:49.725Z,11.10
2018-01-27T16:56:18.071Z,11.40
2018-01-27T16:58:47.950Z,11.70
2018-01-27T17:01:16.311Z,11.00
2018-01-27T17:03:44.677Z,11.47
2018-01-27T17:06:13.058Z,10.17
2018-01-27T17:08:41.413Z,9.97
2018-01-27T17:11:10.539Z,9.90
2018-01-27T17:13:38.902Z,9.07
2018-01-27T17:16:07.533Z,8.73
2018-01-27T17:18:36.053Z,8.60
2018-01-27T17:21:05.255Z,9.20
2018-01-27T17:23:33.790Z,9.80
2018-01-27T17:26:02.146Z,8.27
2018-01-27T17:28:30.174Z,9.30
2018-01-27T17:30:59.318Z,8.80
2018-01-27T17:33:27.350Z,9.43
2018-01-27T17:35:56.591Z,9.07
2018-01-27T17:38:25.068Z,8.97
2018-01-27T17:40:53.459Z,9.53
2018-01-27T17:43:22.174Z,9.93
2018-01-27T17:45:51.339Z,10.03
2018-01-27T17:48:19.689Z,10.50
2018-01-27T17:50:48.512Z,9.70
2018-01-27T17:53:16.899Z,9.93
2018-01-27T17:55:45.271Z,10.50
2018-01-27T17:58:13.460Z,9.93
2018-01-27T18:00:41.837Z,10.67
2018-01-27T18:03:10.954Z,9.80
2018-01-27T18:05:39.310Z,10.87
2018-01-27T18:08:07.702Z,10.63
2018-01-27T18:10:36.818Z,9.43
2018-01-27T18:13:05.206Z,10.00
2018-01-27T18:15:33.541Z,10.70
2018-01-27T18:18:02.102Z,10.57
2018-01-27T18:20:30.462Z,10.33
2018-01-27T18:22:58.842Z,10.10
2018-01-27T18:25:27.020Z,10.10
2018-01-27T18:27:55.394Z,10.33
2018-01-27T18:30:23.904Z,9.50
2018-01-27T18:32:52.296Z,10.13
2018-01-27T18:35:22.273Z,10.20
2018-01-27T18:37:50.673Z,9.23
2018-01-27T18:40:19.053Z,9.70
2018-01-27T18:42:52.470Z,9.70
2018-01-27T18:45:21.737Z,9.40
2018-01-27T18:47:50.142Z,9.83
2018-01-27T18:50:19.287Z,10.07
2018-01-27T18:52:47.656Z,9.50
2018-01-27T18:55:16.065Z,9.87
2018-01-27T18:57:44.416Z,9.30
2018-01-27T19:00:13.042Z,10.07
2018-01-27T19:02:42.114Z,9.50
2018-01-27T19:05:10.543Z,9.40
2018-01-27T19:07:38.898Z,9.10
2018-01-27T19:10:06.944Z,10.50
2018-01-27T19:12:35.391Z,10.57
2018-01-27T19:15:03.801Z,10.43
2018-01-27T19:17:32.287Z,9.40
2018-01-27T19:20:00.668Z,9.13
2018-01-27T19:22:29.009Z,9.17
2018-01-27T19:24:57.368Z,8.67
2018-01-27T19:27:25.759Z,8.77
2018-01-27T19:29:53.485Z,9.50
2018-01-27T19:32:21.864Z,8.90
2018-01-27T19:34:50.443Z,8.83
2018-01-27T19:37:18.811Z,9.03
2018-01-27T19:39:47.159Z,8.60
2018-01-27T19:42:15.176Z,8.93
2018-01-27T19:44:44.311Z,8.90
2018-01-27T19:47:12.678Z,9.13
2018-01-27T19:49:41.023Z,9.70
2018-01-27T19:52:10.245Z,9.10
2018-01-27T19:54:38.851Z,9.50
2018-01-27T19:57:07.250Z,9.53
2018-01-27T19:59:35.640Z,8.70
2018-01-27T20:02:03.770Z,9.03
2018-01-27T20:04:32.729Z,8.80
2018-01-27T20:07:01.847Z,9.77
2018-01-27T20:09:30.389Z,9.00
2018-01-27T20:11:58.742Z,9.83
2018-01-27T20:14:27.096Z,9.80
2018-01-27T20:16:55.434Z,8.90
2018-01-27T20:19:24.565Z,8.50
2018-01-27T20:21:52.958Z,8.10
2018-01-27T20:24:21.322Z,8.90
2018-01-27T20:26:49.666Z,9.20
2018-01-27T20:29:19.011Z,9.63
2018-01-27T20:31:47.413Z,9.13
2018-01-27T20:34:15.812Z,8.13
2018-01-27T20:36:44.941Z,8.93
2018-01-27T20:39:13.434Z,8.87
2018-01-27T20:41:40.942Z,8.80
2018-01-27T20:44:08.982Z,9.13
2018-01-27T20:46:37.496Z,9.20
2018-01-27T20:49:07.029Z,9.17
2018-01-27T20:51:36.146Z,9.53
2018-01-27T20:54:04.495Z,8.53
2018-01-27T20:56:34.091Z,9.40
2018-01-27T20:59:03.044Z,8.93
2018-01-27T21:01:31.433Z,9.60
2018-01-27T21:03:59.937Z,9.73
2018-01-27T21:06:28.143Z,9.33
2018-01-27T21:08:56.440Z,9.17
2018-01-27T21:11:24.826Z,8.90
2018-01-27T21:13:53.211Z,9.70
2018-01-27T21:16:21.385Z,9.83
2018-01-27T21:18:49.958Z,10.13
2018-01-27T21:21:18.347Z,10.37
2018-01-27T21:23:46.722Z,10.40
2018-01-27T21:26:14.930Z,9.93
2018-01-27T21:28:44.047Z,9.87
2018-01-27T21:31:12.430Z,9.30
2018-01-27T21:33:40.786Z,10.17
2018-01-27T21:36:09.926Z,9.80
2018-01-27T21:38:38.301Z,10.17
2018-01-27T21:41:06.696Z,9.77
2018-01-27T21:43:35.250Z,9.40
2018-01-27T21:46:03.622Z,8.87
2018-01-27T21:48:32.051Z,9.57
2018-01-27T21:51:00.408Z,9.30
2018-01-27T21:53:28.784Z,9.60
2018-01-27T21:55:57.195Z,10.47
2018-01-27T21:58:25.543Z,9.57
2018-01-27T22:00:54.005Z,10.03
2018-01-27T22:03:32.226Z,9.50
2018-01-27T22:06:00.623Z,9.63
2018-01-27T22:08:29.080Z,9.50
2018-01-27T22:10:57.580Z,10.03
2018-01-27T22:13:25.952Z,9.70
2018-01-27T22:15:54.329Z,9.40
2018-01-27T22:18:23.000Z,9.07
2018-01-27T22:20:51.344Z,9.70
2018-01-27T22:23:20.568Z,9.30
2018-01-27T22:25:48.940Z,8.43
2018-01-27T22:28:17.482Z,8.47
2018-01-27T22:30:45.861Z,8.77
2018-01-27T22:33:14.205Z,7.83
2018-01-27T22:35:42.564Z,7.90
2018-01-27T22:38:10.985Z,6.63
2018-01-27T22:40:40.107Z,6.23
2018-01-27T22:43:09.328Z,6.33
2018-01-27T22:45:37.746Z,6.03
2018-01-27T22:48:05.915Z,5.20
2018-01-27T22:50:33.934Z,4.90
2018-01-27T22:53:01.820Z,5.30
2018-01-27T22:55:30.197Z,4.80
2018-01-27T22:57:58.548Z,4.53
2018-01-27T23:00:27.691Z,6.13
2018-01-27T23:02:56.145Z,4.27
2018-01-27T23:05:24.542Z,4.27
2018-01-27T23:07:52.898Z,4.70
2018-01-27T23:10:20.914Z,4.60
2018-01-27T23:12:48.933Z,4.27
2018-01-27T23:15:17.280Z,4.20
2018-01-27T23:17:45.648Z,4.03
2018-01-27T23:20:13.333Z,4.60
2018-01-27T23:22:41.753Z,4.63
2018-01-27T23:25:10.178Z,4.73
2018-01-27T23:27:39.317Z,4.03
2018-01-27T23:30:07.656Z,5.00
2018-01-27T23:32:36.792Z,4.67
2018-01-27T23:35:05.163Z,4.17
2018-01-27T23:37:33.548Z,4.40
2018-01-27T23:40:01.911Z,5.40
2018-01-27T23:42:31.046Z,4.93
2018-01-27T23:44:59.407Z,4.97
2018-01-27T23:47:27.755Z,5.53
2018-01-27T23:49:56.118Z,5.70
2018-01-27T23:52:25.226Z,6.10
2018-01-27T23:54:53.578Z,6.30
2018-01-27T23:57:22.110Z,6.63
2018-01-27T23:59:50.458Z,7.10
